Time;durP1;ratioP1;P1;durP2;ratioP2;P2;SDS_P1;SDS_P2;PMS_P1;PMS_P2;Temp;Humidity;BMP_temperature;BMP_pressure;BME280_temperature;BME280_humidity;BME280_pressure;Samples;Min_cycle;Max_cycle;Signal;HPM_P1;HPM_P2
2022/03/03 00:02:11;;;;;;;37.13;13.68;;;;;;;;;;5073861;28;20547;-82
2022/03/03 00:04:36;;;;;;;39.40;15.13;;;;;;;;;;5075180;28;20370;-82
2022/03/03 00:07:02;;;;;;;40.60;14.90;;;;;;;;;;5075049;28;20029;-82
2022/03/03 00:09:27;;;;;;;39.00;14.65;;;;;;;;;;5073889;28;20119;-82
2022/03/03 00:11:53;;;;;;;46.85;17.30;;;;;;;;;;5082552;28;20040;-82
2022/03/03 00:14:19;;;;;;;39.10;14.52;;;;;;;;;;5063317;28;20115;-82
2022/03/03 00:16:44;;;;;;;38.15;14.38;;;;;;;;;;5075464;28;20066;-82
2022/03/03 00:19:09;;;;;;;38.70;15.20;;;;;;;;;;5094378;28;20037;-83
2022/03/03 00:21:35;;;;;;;39.78;14.75;;;;;;;;;;5074878;28;20029;-83
2022/03/03 00:24:00;;;;;;;34.67;13.98;;;;;;;;;;5090809;28;20028;-82
2022/03/03 00:26:26;;;;;;;36.45;14.88;;;;;;;;;;5107284;28;20107;-82
2022/03/03 00:28:52;;;;;;;38.97;14.32;;;;;;;;;;5090315;28;20089;-81
2022/03/03 00:31:17;;;;;;;33.35;12.73;;;;;;;;;;5107226;28;20035;-81
2022/03/03 00:33:43;;;;;;;34.90;13.57;;;;;;;;;;5079078;28;20025;-83
2022/03/03 00:36:09;;;;;;;36.25;12.75;;;;;;;;;;5100445;28;20029;-83
2022/03/03 00:38:34;;;;;;;40.85;13.32;;;;;;;;;;5107336;28;20025;-83
2022/03/03 00:41:00;;;;;;;32.97;13.05;;;;;;;;;;5072606;28;20033;-83
2022/03/03 00:43:25;;;;;;;43.20;14.70;;;;;;;;;;5073572;28;20039;-83
2022/03/03 00:45:51;;;;;;;35.28;13.50;;;;;;;;;;5073383;28;20454;-83
2022/03/03 00:48:16;;;;;;;36.80;13.07;;;;;;;;;;5106896;28;20102;-82
2022/03/03 00:50:41;;;;;;;35.15;12.90;;;;;;;;;;5090041;28;20351;-83
2022/03/03 00:53:07;;;;;;;31.95;11.90;;;;;;;;;;5074291;28;20028;-83
2022/03/03 00:55:32;;;;;;;34.55;11.23;;;;;;;;;;5080657;28;20035;-83
2022/03/03 00:57:58;;;;;;;30.50;12.40;;;;;;;;;;5061791;28;20028;-83
2022/03/03 01:00:25;;;;;;;33.97;12.45;;;;;;;;;;5074766;28;20144;-83
2022/03/03 01:02:50;;;;;;;37.67;13.07;;;;;;;;;;5090044;28;20059;-82
2022/03/03 01:05:17;;;;;;;28.02;11.43;;;;;;;;;;5073117;28;20457;-83
2022/03/03 01:07:42;;;;;;;30.70;12.18;;;;;;;;;;5074335;28;20165;-82
2022/03/03 01:10:08;;;;;;;36.88;12.80;;;;;;;;;;5089698;28;20073;-83
2022/03/03 01:12:34;;;;;;;33.17;12.18;;;;;;;;;;5072988;28;20031;-83
2022/03/03 01:15:00;;;;;;;33.65;12.35;;;;;;;;;;5057265;28;20024;-82
2022/03/03 01:17:25;;;;;;;31.42;13.35;;;;;;;;;;5084683;28;20024;-82
2022/03/03 01:19:51;;;;;;;32.38;12.75;;;;;;;;;;5057317;28;20077;-84
2022/03/03 01:22:16;;;;;;;33.47;12.57;;;;;;;;;;5072952;28;20020;-83
2022/03/03 01:24:43;;;;;;;35.85;13.25;;;;;;;;;;5072508;28;20025;-83
2022/03/03 01:27:08;;;;;;;31.92;11.85;;;;;;;;;;5072923;28;20017;-82
2022/03/03 01:29:34;;;;;;;33.28;12.35;;;;;;;;;;5089578;28;20035;-83
2022/03/03 01:32:01;;;;;;;36.38;12.85;;;;;;;;;;5089783;28;20056;-83
2022/03/03 01:34:26;;;;;;;37.38;12.32;;;;;;;;;;5104911;28;20033;-83
2022/03/03 01:36:52;;;;;;;38.53;13.27;;;;;;;;;;5073269;28;20032;-82
2022/03/03 01:39:18;;;;;;;32.10;12.27;;;;;;;;;;5101395;28;20120;-82
2022/03/03 01:41:43;;;;;;;37.00;13.20;;;;;;;;;;5107417;28;20047;-83
2022/03/03 01:44:09;;;;;;;38.60;13.95;;;;;;;;;;5073797;28;20028;-82
2022/03/03 01:46:34;;;;;;;34.10;12.82;;;;;;;;;;5072751;28;20335;-83
2022/03/03 01:49:00;;;;;;;34.42;13.23;;;;;;;;;;5072293;28;20064;-82
2022/03/03 01:51:26;;;;;;;40.15;14.13;;;;;;;;;;5072643;28;20462;-83
2022/03/03 01:53:51;;;;;;;38.13;13.77;;;;;;;;;;5093257;28;20017;-83
2022/03/03 01:56:17;;;;;;;34.17;13.90;;;;;;;;;;5093504;28;20024;-83
2022/03/03 01:58:43;;;;;;;42.33;14.38;;;;;;;;;;5095462;28;20029;-83
2022/03/03 02:01:08;;;;;;;40.58;14.52;;;;;;;;;;5085939;28;20029;-83
2022/03/03 02:03:34;;;;;;;43.80;16.38;;;;;;;;;;5059504;28;20118;-82
2022/03/03 02:05:59;;;;;;;43.78;14.65;;;;;;;;;;5076232;28;20016;-82
2022/03/03 02:08:25;;;;;;;42.70;15.27;;;;;;;;;;5075957;28;20020;-83
2022/03/03 02:10:51;;;;;;;49.55;15.10;;;;;;;;;;5093315;28;20061;-83
2022/03/03 02:13:17;;;;;;;38.85;14.93;;;;;;;;;;5109387;28;20032;-82
2022/03/03 02:15:52;;;;;;;48.63;16.15;;;;;;;;;;5093321;28;20032;-81
2022/03/03 02:18:18;;;;;;;40.63;15.13;;;;;;;;;;5077183;28;20035;-81
2022/03/03 02:20:44;;;;;;;46.75;16.17;;;;;;;;;;5082996;28;20013;-81
2022/03/03 02:23:09;;;;;;;47.63;15.43;;;;;;;;;;5081012;28;20534;-82
2022/03/03 02:25:35;;;;;;;52.33;15.57;;;;;;;;;;5076225;28;20029;-82
2022/03/03 02:28:00;;;;;;;42.45;16.30;;;;;;;;;;5077232;28;20028;-83
2022/03/03 02:30:26;;;;;;;44.80;16.40;;;;;;;;;;5109624;28;20036;-83
2022/03/03 02:32:52;;;;;;;53.75;17.92;;;;;;;;;;5076014;28;20370;-82
2022/03/03 02:35:21;;;;;;;46.40;15.48;;;;;;;;;;5092273;28;20032;-82
2022/03/03 02:37:46;;;;;;;49.30;16.98;;;;;;;;;;5075839;28;20025;-82
2022/03/03 02:40:19;;;;;;;43.80;16.55;;;;;;;;;;5077176;28;20028;-82
2022/03/03 02:42:51;;;;;;;44.65;17.63;;;;;;;;;;5086353;28;20036;-83
2022/03/03 02:45:17;;;;;;;46.28;16.83;;;;;;;;;;5091617;28;20034;-81
2022/03/03 02:47:45;;;;;;;43.05;17.52;;;;;;;;;;5058672;28;20040;-80
2022/03/03 02:50:10;;;;;;;45.63;17.55;;;;;;;;;;5076491;28;20033;-82
2022/03/03 02:52:36;;;;;;;48.80;16.67;;;;;;;;;;5109181;28;20031;-81
2022/03/03 02:55:02;;;;;;;41.60;17.20;;;;;;;;;;5076620;28;20385;-81
2022/03/03 03:00:12;;;;;;;47.00;17.42;;;;;;;;;;5076284;28;20032;-81
2022/03/03 03:02:38;;;;;;;44.75;16.48;;;;;;;;;;5078368;28;20017;-80
2022/03/03 03:05:04;;;;;;;45.72;16.88;;;;;;;;;;5066076;28;20139;-79
2022/03/03 03:07:29;;;;;;;54.38;18.67;;;;;;;;;;5092341;28;20123;-80
2022/03/03 03:09:55;;;;;;;55.65;18.25;;;;;;;;;;5058757;28;20032;-81
2022/03/03 03:12:20;;;;;;;57.10;19.33;;;;;;;;;;5075373;28;20411;-80
2022/03/03 03:14:46;;;;;;;51.80;18.73;;;;;;;;;;5108939;28;20032;-81
2022/03/03 03:17:11;;;;;;;47.83;17.65;;;;;;;;;;5076017;28;20366;-80
2022/03/03 03:19:37;;;;;;;50.83;17.95;;;;;;;;;;5075747;28;20024;-81
2022/03/03 03:22:03;;;;;;;49.45;18.80;;;;;;;;;;5082652;28;20013;-80
2022/03/03 03:24:32;;;;;;;46.42;17.83;;;;;;;;;;5092834;28;20029;-82
2022/03/03 03:26:57;;;;;;;50.42;17.25;;;;;;;;;;5065295;28;20028;-82
2022/03/03 03:29:23;;;;;;;56.83;19.02;;;;;;;;;;5074778;28;20036;-83
2022/03/03 03:31:48;;;;;;;51.15;19.02;;;;;;;;;;5075932;28;20086;-82
2022/03/03 03:34:14;;;;;;;56.67;18.73;;;;;;;;;;5074522;28;20437;-83
2022/03/03 03:36:39;;;;;;;50.35;18.98;;;;;;;;;;5058178;28;20446;-83
2022/03/03 03:39:05;;;;;;;46.75;16.98;;;;;;;;;;5075699;28;20152;-82
2022/03/03 03:41:30;;;;;;;58.72;18.80;;;;;;;;;;5074470;28;20344;-82
2022/03/03 03:46:39;;;;;;;61.10;19.52;;;;;;;;;;5114396;28;20038;-82
2022/03/03 03:49:08;;;;;;;56.55;19.83;;;;;;;;;;5107800;28;20499;-83
2022/03/03 03:51:34;;;;;;;53.40;20.65;;;;;;;;;;5075501;28;20377;-82
2022/03/03 03:53:59;;;;;;;51.95;18.10;;;;;;;;;;5074434;28;20032;-82
2022/03/03 03:56:24;;;;;;;57.97;18.50;;;;;;;;;;5074282;28;20043;-82
2022/03/03 03:58:50;;;;;;;53.58;19.58;;;;;;;;;;5074310;28;20036;-83
2022/03/03 04:01:16;;;;;;;61.00;19.92;;;;;;;;;;5074691;28;20029;-82
2022/03/03 04:03:42;;;;;;;59.45;19.23;;;;;;;;;;5074196;28;20365;-82
2022/03/03 04:06:07;;;;;;;47.47;18.15;;;;;;;;;;5074480;28;20446;-81
2022/03/03 04:08:34;;;;;;;56.55;18.25;;;;;;;;;;5086546;28;20029;-82
2022/03/03 04:10:59;;;;;;;57.83;20.60;;;;;;;;;;5073826;28;20067;-82
2022/03/03 04:13:25;;;;;;;54.80;17.23;;;;;;;;;;5057455;28;20020;-83
2022/03/03 04:15:50;;;;;;;54.47;19.10;;;;;;;;;;5073059;28;20029;-82
2022/03/03 04:18:16;;;;;;;47.35;18.23;;;;;;;;;;5073730;28;20028;-83
2022/03/03 04:20:41;;;;;;;50.10;18.13;;;;;;;;;;5073720;28;20055;-82
2022/03/03 04:23:06;;;;;;;55.08;19.52;;;;;;;;;;5090421;28;20029;-83
2022/03/03 04:25:33;;;;;;;51.05;19.08;;;;;;;;;;5073922;28;20028;-82
2022/03/03 04:27:59;;;;;;;44.88;17.15;;;;;;;;;;5109723;28;20063;-82
2022/03/03 04:30:25;;;;;;;45.08;17.25;;;;;;;;;;5081871;28;20040;-83
2022/03/03 04:32:51;;;;;;;49.58;17.55;;;;;;;;;;5090316;28;20442;-82
2022/03/03 04:35:17;;;;;;;55.45;20.23;;;;;;;;;;5106889;28;20113;-83
2022/03/03 04:37:42;;;;;;;49.08;18.20;;;;;;;;;;5074838;28;20442;-83
2022/03/03 04:40:08;;;;;;;56.20;18.52;;;;;;;;;;5073329;28;20028;-83
2022/03/03 04:42:33;;;;;;;57.67;20.17;;;;;;;;;;5074478;28;20032;-83
2022/03/03 04:44:59;;;;;;;57.17;19.48;;;;;;;;;;5073066;28;20043;-83
2022/03/03 04:47:24;;;;;;;62.90;21.38;;;;;;;;;;5073016;28;20097;-83
2022/03/03 04:49:50;;;;;;;56.90;20.75;;;;;;;;;;5078366;28;20048;-82
2022/03/03 04:52:15;;;;;;;58.10;20.02;;;;;;;;;;5112814;28;20032;-83
2022/03/03 04:54:42;;;;;;;61.88;21.70;;;;;;;;;;5074255;28;20024;-82
2022/03/03 04:57:07;;;;;;;53.85;19.63;;;;;;;;;;5073192;28;20074;-82
2022/03/03 04:59:33;;;;;;;53.15;19.63;;;;;;;;;;5090014;28;20025;-83
2022/03/03 05:01:59;;;;;;;59.92;21.00;;;;;;;;;;5073733;28;20349;-81
2022/03/03 05:04:24;;;;;;;67.10;20.08;;;;;;;;;;5073200;28;20060;-83
2022/03/03 05:06:50;;;;;;;51.00;16.60;;;;;;;;;;5072898;28;20474;-82
2022/03/03 05:09:15;;;;;;;63.38;18.98;;;;;;;;;;5089946;28;20519;-82
2022/03/03 05:11:41;;;;;;;59.03;19.13;;;;;;;;;;5082471;28;20009;-83
2022/03/03 05:14:07;;;;;;;47.60;17.20;;;;;;;;;;5077731;28;20033;-83
2022/03/03 05:16:32;;;;;;;50.42;17.38;;;;;;;;;;5089654;28;20033;-82
2022/03/03 05:18:58;;;;;;;53.13;18.10;;;;;;;;;;5073069;28;20044;-82
2022/03/03 05:21:23;;;;;;;57.83;20.55;;;;;;;;;;5073103;28;20035;-83
2022/03/03 05:23:49;;;;;;;67.75;22.73;;;;;;;;;;5072977;28;20032;-82
2022/03/03 05:26:14;;;;;;;65.20;24.17;;;;;;;;;;5073013;28;20056;-83
2022/03/03 05:28:40;;;;;;;62.55;21.30;;;;;;;;;;5076498;28;20028;-82
2022/03/03 05:31:05;;;;;;;58.03;20.40;;;;;;;;;;5093969;28;20029;-83
2022/03/03 05:33:31;;;;;;;53.58;18.27;;;;;;;;;;5090014;28;20072;-81
2022/03/03 05:36:05;;;;;;;56.72;20.73;;;;;;;;;;5093900;28;20446;-82
2022/03/03 05:38:31;;;;;;;58.22;19.88;;;;;;;;;;5076921;28;20020;-82
2022/03/03 05:40:57;;;;;;;60.17;21.05;;;;;;;;;;5093433;28;20438;-82
2022/03/03 05:43:24;;;;;;;65.00;21.45;;;;;;;;;;5093692;28;20020;-83
2022/03/03 05:45:50;;;;;;;61.88;20.77;;;;;;;;;;5093769;28;20397;-84
2022/03/03 05:48:16;;;;;;;62.17;20.05;;;;;;;;;;5076504;28;20040;-83
2022/03/03 05:50:42;;;;;;;54.63;20.38;;;;;;;;;;5110745;28;20035;-81
2022/03/03 05:53:07;;;;;;;58.55;19.92;;;;;;;;;;5093468;28;20029;-81
2022/03/03 05:55:41;;;;;;;60.90;20.73;;;;;;;;;;5123999;28;20043;-82
2022/03/03 05:58:06;;;;;;;61.92;23.33;;;;;;;;;;5092395;28;20036;-84
2022/03/03 06:00:33;;;;;;;68.32;21.60;;;;;;;;;;5093413;28;20037;-83
2022/03/03 06:02:58;;;;;;;69.53;22.85;;;;;;;;;;5076368;28;20074;-81
2022/03/03 06:05:25;;;;;;;60.45;21.42;;;;;;;;;;5076656;28;20028;-83
2022/03/03 06:08:01;;;;;;;61.78;21.45;;;;;;;;;;5077459;28;20350;-84
2022/03/03 06:10:26;;;;;;;61.70;22.50;;;;;;;;;;5077510;28;20086;-83
2022/03/03 06:13:32;;;;;;;58.40;20.30;;;;;;;;;;5076244;28;20058;-83
2022/03/03 06:15:58;;;;;;;72.57;22.27;;;;;;;;;;5083820;28;20051;-82
2022/03/03 06:18:27;;;;;;;65.32;23.23;;;;;;;;;;5078903;28;20029;-81
2022/03/03 06:20:53;;;;;;;64.85;23.63;;;;;;;;;;5109888;28;20028;-82
2022/03/03 06:23:19;;;;;;;58.55;22.00;;;;;;;;;;5076004;28;20032;-83
2022/03/03 06:26:04;;;;;;;65.80;24.70;;;;;;;;;;5076376;28;20132;-82
2022/03/03 06:28:30;;;;;;;63.55;23.77;;;;;;;;;;5108202;28;20024;-82
2022/03/03 06:30:56;;;;;;;66.40;23.55;;;;;;;;;;5078999;28;20024;-83
2022/03/03 06:33:22;;;;;;;63.90;21.80;;;;;;;;;;5076678;28;20503;-83
2022/03/03 06:35:47;;;;;;;75.20;25.98;;;;;;;;;;5092932;28;20032;-84
2022/03/03 06:38:13;;;;;;;70.05;25.17;;;;;;;;;;5089019;28;20044;-83
2022/03/03 06:40:38;;;;;;;89.55;28.00;;;;;;;;;;5109640;28;20068;-83
2022/03/03 06:43:04;;;;;;;78.05;25.08;;;;;;;;;;5075920;28;20453;-84
2022/03/03 06:45:30;;;;;;;70.47;25.90;;;;;;;;;;5075817;28;20032;-82
2022/03/03 06:47:57;;;;;;;66.30;25.00;;;;;;;;;;5109183;28;20056;-84
2022/03/03 06:50:22;;;;;;;76.25;27.40;;;;;;;;;;5109186;28;20059;-84
2022/03/03 06:52:49;;;;;;;77.25;27.40;;;;;;;;;;5059345;28;20438;-83
2022/03/03 06:55:33;;;;;;;74.38;26.35;;;;;;;;;;5076572;28;20028;-83
2022/03/03 06:58:01;;;;;;;63.72;22.08;;;;;;;;;;5081774;28;20064;-82
2022/03/03 07:00:40;;;;;;;70.53;24.75;;;;;;;;;;5101768;28;20032;-83
2022/03/03 07:03:05;;;;;;;65.55;23.70;;;;;;;;;;5090943;28;20024;-83
2022/03/03 07:05:31;;;;;;;52.13;20.83;;;;;;;;;;5092407;28;20051;-84
2022/03/03 07:07:57;;;;;;;69.07;23.42;;;;;;;;;;5092222;28;20053;-83
2022/03/03 07:10:25;;;;;;;69.32;23.02;;;;;;;;;;5075275;28;20438;-83
2022/03/03 07:12:55;;;;;;;61.13;21.35;;;;;;;;;;5075331;28;20032;-83
2022/03/03 07:15:25;;;;;;;64.18;23.48;;;;;;;;;;5108679;28;20123;-82
2022/03/03 07:17:53;;;;;;;51.50;22.90;;;;;;;;;;5089570;28;20041;-81
2022/03/03 07:20:36;;;;;;;53.70;22.10;;;;;;;;;;5085897;28;20028;-83
2022/03/03 07:23:04;;;;;;;57.05;22.10;;;;;;;;;;5113811;28;20033;-84
2022/03/03 07:25:46;;;;;;;53.53;21.35;;;;;;;;;;5091484;28;20109;-83
2022/03/03 07:28:14;;;;;;;51.78;20.70;;;;;;;;;;5091289;28;20448;-83
2022/03/03 07:30:43;;;;;;;49.65;22.63;;;;;;;;;;5058386;28;20036;-85
2022/03/03 07:33:38;;;;;;;50.75;22.40;;;;;;;;;;5074302;28;20040;-83
2022/03/03 07:36:12;;;;;;;47.67;20.30;;;;;;;;;;5071065;28;20035;-83
2022/03/03 07:38:41;;;;;;;51.08;24.05;;;;;;;;;;5074684;28;20059;-83
2022/03/03 07:41:10;;;;;;;44.75;21.70;;;;;;;;;;5098398;28;20068;-80
2022/03/03 07:43:37;;;;;;;52.53;23.52;;;;;;;;;;5094669;28;20032;-82
2022/03/03 07:46:03;;;;;;;43.17;21.15;;;;;;;;;;5075873;28;20438;-82
2022/03/03 07:48:31;;;;;;;40.97;19.67;;;;;;;;;;5074549;28;20048;-85
2022/03/03 07:50:57;;;;;;;48.88;21.67;;;;;;;;;;5162652;22;20025;-78
2022/03/03 07:53:22;;;;;;;48.10;20.65;;;;;;;;;;5074166;28;20476;-78
2022/03/03 07:55:51;;;;;;;38.47;19.60;;;;;;;;;;5075481;28;20446;-78
2022/03/03 07:58:21;;;;;;;48.83;22.15;;;;;;;;;;5075491;28;20024;-76
2022/03/03 08:00:51;;;;;;;45.53;21.98;;;;;;;;;;5075256;28;20028;-77
2022/03/03 08:03:18;;;;;;;44.80;19.90;;;;;;;;;;5057716;28;20035;-75
2022/03/03 08:05:45;;;;;;;43.67;21.52;;;;;;;;;;5075451;28;20115;-76
2022/03/03 08:08:15;;;;;;;40.83;20.58;;;;;;;;;;5074140;28;20370;-76
2022/03/03 08:10:44;;;;;;;45.58;22.15;;;;;;;;;;5073526;28;20032;-78
2022/03/03 08:13:11;;;;;;;46.90;21.52;;;;;;;;;;5057479;28;20036;-77
2022/03/03 08:15:38;;;;;;;40.13;20.17;;;;;;;;;;5074818;28;20036;-78
2022/03/03 08:18:03;;;;;;;33.70;12.80;;;;;;;;;;5074748;28;20119;-78
2022/03/03 08:20:30;;;;;;;32.85;12.98;;;;;;;;;;5075051;28;20068;-79
2022/03/03 08:22:56;;;;;;;32.00;14.15;;;;;;;;;;5090625;28;20447;-77
2022/03/03 08:25:22;;;;;;;32.05;14.07;;;;;;;;;;5090527;28;20036;-78
2022/03/03 08:27:48;;;;;;;29.13;14.40;;;;;;;;;;5090998;28;20047;-77
2022/03/03 08:30:13;;;;;;;42.85;18.08;;;;;;;;;;5074941;28;20376;-78
2022/03/03 08:32:40;;;;;;;44.67;18.25;;;;;;;;;;5074680;28;20035;-78
2022/03/03 08:35:12;;;;;;;47.88;28.80;;;;;;;;;;5090350;28;20397;-77
2022/03/03 08:38:03;;;;;;;46.47;17.48;;;;;;;;;;5074574;28;20043;-78
2022/03/03 08:40:29;;;;;;;34.03;14.57;;;;;;;;;;5085029;28;20037;-77
2022/03/03 08:42:57;;;;;;;38.40;13.40;;;;;;;;;;5079661;28;20077;-77
2022/03/03 08:45:23;;;;;;;31.60;14.30;;;;;;;;;;5061923;28;20032;-78
2022/03/03 08:47:56;;;;;;;36.70;14.85;;;;;;;;;;5090428;28;20064;-78
2022/03/03 08:50:22;;;;;;;27.63;13.18;;;;;;;;;;5089892;28;20114;-78
2022/03/03 08:52:47;;;;;;;31.95;12.43;;;;;;;;;;5055983;28;20071;-75
2022/03/03 08:55:14;;;;;;;37.13;14.90;;;;;;;;;;5089907;28;20028;-78
2022/03/03 08:57:39;;;;;;;33.92;14.60;;;;;;;;;;5073047;28;20483;-78
2022/03/03 09:00:07;;;;;;;28.38;11.70;;;;;;;;;;5074479;28;20060;-78
2022/03/03 09:02:33;;;;;;;27.13;12.25;;;;;;;;;;5073868;28;20107;-77
2022/03/03 09:04:58;;;;;;;29.17;14.00;;;;;;;;;;5056638;28;20503;-78
2022/03/03 09:07:24;;;;;;;35.88;11.95;;;;;;;;;;5056442;28;20025;-78
2022/03/03 09:09:49;;;;;;;27.88;11.30;;;;;;;;;;5074101;28;20370;-77
2022/03/03 09:12:15;;;;;;;25.27;11.18;;;;;;;;;;5074655;28;20036;-77
2022/03/03 09:14:40;;;;;;;28.10;13.40;;;;;;;;;;5074364;28;20469;-77
2022/03/03 09:17:06;;;;;;;67.50;29.58;;;;;;;;;;5074305;28;20037;-78
2022/03/03 09:19:31;;;;;;;26.67;12.40;;;;;;;;;;5074644;28;20028;-77
2022/03/03 09:21:57;;;;;;;39.28;21.63;;;;;;;;;;5074085;28;20103;-77
2022/03/03 09:24:23;;;;;;;36.55;17.92;;;;;;;;;;5074577;28;20077;-77
2022/03/03 09:26:51;;;;;;;33.63;14.80;;;;;;;;;;5074121;28;20413;-79
2022/03/03 09:29:17;;;;;;;41.08;13.68;;;;;;;;;;5074246;28;20439;-77
2022/03/03 09:31:44;;;;;;;30.02;12.52;;;;;;;;;;5056236;28;20458;-77
2022/03/03 09:34:09;;;;;;;25.27;13.68;;;;;;;;;;5074270;28;20036;-78
2022/03/03 09:36:35;;;;;;;31.13;15.18;;;;;;;;;;5055734;28;20033;-77
2022/03/03 09:39:00;;;;;;;28.15;11.38;;;;;;;;;;5073725;28;20063;-76
2022/03/03 09:41:26;;;;;;;29.92;12.05;;;;;;;;;;5073755;28;20469;-77
2022/03/03 09:43:51;;;;;;;35.03;14.10;;;;;;;;;;5073794;28;20119;-77
2022/03/03 09:46:17;;;;;;;25.60;11.48;;;;;;;;;;5074052;28;20033;-77
2022/03/03 09:48:42;;;;;;;37.05;13.27;;;;;;;;;;5074209;28;20033;-77
2022/03/03 09:51:08;;;;;;;23.17;11.18;;;;;;;;;;5073264;28;20028;-78
2022/03/03 09:53:33;;;;;;;28.55;11.02;;;;;;;;;;5056019;28;20036;-78
2022/03/03 09:55:59;;;;;;;32.88;13.02;;;;;;;;;;5055927;28;20370;-77
2022/03/03 09:58:25;;;;;;;31.42;12.95;;;;;;;;;;5073674;28;20032;-78
2022/03/03 10:00:50;;;;;;;32.67;13.32;;;;;;;;;;5073985;28;20032;-76
2022/03/03 10:03:17;;;;;;;39.05;14.13;;;;;;;;;;5073976;28;20040;-78
2022/03/03 10:05:48;;;;;;;43.15;17.25;;;;;;;;;;5089220;28;20123;-77
2022/03/03 10:08:18;;;;;;;29.65;13.27;;;;;;;;;;5055981;28;20434;-77
2022/03/03 10:10:49;;;;;;;39.85;18.08;;;;;;;;;;5073539;28;20431;-77
2022/03/03 10:13:16;;;;;;;37.33;17.63;;;;;;;;;;5073064;28;20397;-77
2022/03/03 10:15:42;;;;;;;35.17;14.40;;;;;;;;;;5059986;28;20032;-76
2022/03/03 10:18:12;;;;;;;37.03;16.67;;;;;;;;;;5077126;28;20024;-77
2022/03/03 10:20:53;;;;;;;40.08;17.17;;;;;;;;;;5075642;28;20044;-78
2022/03/03 10:23:24;;;;;;;38.25;15.60;;;;;;;;;;5076967;28;20035;-75
2022/03/03 10:25:51;;;;;;;46.95;17.35;;;;;;;;;;5059573;28;20043;-78
2022/03/03 10:28:27;;;;;;;35.92;12.98;;;;;;;;;;5077489;28;20131;-77
2022/03/03 10:31:01;;;;;;;35.63;14.77;;;;;;;;;;5074781;28;20382;-76
2022/03/03 10:33:29;;;;;;;38.75;17.27;;;;;;;;;;5092461;28;20029;-78
2022/03/03 10:35:58;;;;;;;46.50;19.27;;;;;;;;;;5092236;28;20351;-77
2022/03/03 10:38:24;;;;;;;31.52;14.45;;;;;;;;;;5076791;28;20035;-77
2022/03/03 10:40:49;;;;;;;28.23;12.02;;;;;;;;;;5092427;28;20036;-76
2022/03/03 10:43:15;;;;;;;27.52;12.35;;;;;;;;;;5075753;28;20097;-77
2022/03/03 10:45:59;;;;;;;22.10;10.90;;;;;;;;;;5076649;28;20378;-76
2022/03/03 10:48:26;;;;;;;33.05;11.80;;;;;;;;;;5078075;28;20037;-77
2022/03/03 10:50:54;;;;;;;34.65;12.32;;;;;;;;;;5076936;28;20063;-77
2022/03/03 10:53:20;;;;;;;49.00;18.98;;;;;;;;;;5077949;28;20461;-77
2022/03/03 10:56:00;;;;;;;28.77;13.77;;;;;;;;;;5062791;28;20085;-77
2022/03/03 10:58:49;;;;;;;41.20;18.57;;;;;;;;;;5079022;28;20028;-77
2022/03/03 11:01:16;;;;;;;44.83;19.02;;;;;;;;;;5058967;28;20044;-77
2022/03/03 11:03:44;;;;;;;24.98;12.57;;;;;;;;;;5076559;28;20039;-76
2022/03/03 11:06:10;;;;;;;41.80;16.88;;;;;;;;;;5075155;28;20380;-76
2022/03/03 11:08:36;;;;;;;45.63;15.23;;;;;;;;;;5075941;28;20068;-77
2022/03/03 11:11:03;;;;;;;50.20;16.33;;;;;;;;;;5076852;28;20133;-78
2022/03/03 11:13:28;;;;;;;26.77;11.73;;;;;;;;;;5058393;28;20032;-77
2022/03/03 11:15:54;;;;;;;33.70;12.75;;;;;;;;;;5076588;28;20040;-77
2022/03/03 11:18:20;;;;;;;47.53;14.73;;;;;;;;;;5074849;28;20485;-78
2022/03/03 11:20:49;;;;;;;38.90;14.50;;;;;;;;;;5058473;28;20139;-77
2022/03/03 11:23:14;;;;;;;45.65;18.85;;;;;;;;;;5076055;28;20125;-77
2022/03/03 11:25:40;;;;;;;47.88;16.25;;;;;;;;;;5074290;28;20496;-77
2022/03/03 11:28:10;;;;;;;34.88;12.70;;;;;;;;;;5075948;28;20029;-77
2022/03/03 11:30:36;;;;;;;26.60;12.43;;;;;;;;;;5041753;28;20119;-78
2022/03/03 11:33:17;;;;;;;29.60;12.23;;;;;;;;;;5057950;28;20252;-77
2022/03/03 11:35:58;;;;;;;35.33;12.65;;;;;;;;;;5075779;28;20074;-78
2022/03/03 11:38:25;;;;;;;32.15;13.02;;;;;;;;;;5075980;28;20031;-75
2022/03/03 11:40:55;;;;;;;28.67;12.68;;;;;;;;;;5075927;28;20024;-76
2022/03/03 11:43:21;;;;;;;25.88;11.27;;;;;;;;;;5075559;28;20032;-78
2022/03/03 11:45:57;;;;;;;29.98;13.40;;;;;;;;;;5075580;28;20024;-75
2022/03/03 11:48:23;;;;;;;42.20;14.55;;;;;;;;;;5075242;28;20055;-76
2022/03/03 11:50:50;;;;;;;36.83;14.07;;;;;;;;;;5090918;28;20033;-76
2022/03/03 11:53:19;;;;;;;33.47;13.35;;;;;;;;;;5075308;28;20048;-77
2022/03/03 11:55:59;;;;;;;34.42;13.80;;;;;;;;;;5074156;28;20043;-77
2022/03/03 11:58:27;;;;;;;37.53;14.30;;;;;;;;;;5058110;28;20032;-77
2022/03/03 12:00:59;;;;;;;33.25;13.80;;;;;;;;;;5090758;28;20044;-77
2022/03/03 12:03:24;;;;;;;37.85;15.02;;;;;;;;;;5075211;28;20040;-77
2022/03/03 12:06:08;;;;;;;32.65;14.18;;;;;;;;;;5075766;28;20029;-76
2022/03/03 12:08:35;;;;;;;34.28;13.57;;;;;;;;;;5075216;28;20024;-76
2022/03/03 12:11:01;;;;;;;40.00;15.05;;;;;;;;;;5075308;28;20028;-77
2022/03/03 12:13:32;;;;;;;35.70;15.10;;;;;;;;;;5074987;28;20025;-76
2022/03/03 12:16:19;;;;;;;48.95;17.23;;;;;;;;;;5075023;28;20036;-75
2022/03/03 12:18:57;;;;;;;37.33;16.08;;;;;;;;;;5075102;28;20035;-76
2022/03/03 12:21:43;;;;;;;36.35;16.27;;;;;;;;;;5074929;28;20024;-76
2022/03/03 12:24:17;;;;;;;35.92;14.50;;;;;;;;;;5075186;28;20037;-77
2022/03/03 12:26:52;;;;;;;33.88;13.95;;;;;;;;;;5075219;28;20032;-78
2022/03/03 12:29:37;;;;;;;31.02;12.07;;;;;;;;;;5074897;28;20040;-77
2022/03/03 12:32:21;;;;;;;60.60;22.60;;;;;;;;;;5075658;28;20028;-78
2022/03/03 12:34:47;;;;;;;51.83;23.52;;;;;;;;;;5075601;28;20445;-77
2022/03/03 12:37:12;;;;;;;37.67;17.10;;;;;;;;;;5075747;28;20025;-77
2022/03/03 12:39:46;;;;;;;33.17;14.85;;;;;;;;;;5075365;28;20036;-77
2022/03/03 12:42:12;;;;;;;41.13;18.35;;;;;;;;;;5090269;28;20020;-78
2022/03/03 12:44:37;;;;;;;36.75;15.05;;;;;;;;;;5073663;28;20025;-76
2022/03/03 12:47:04;;;;;;;41.90;16.33;;;;;;;;;;5074767;28;20025;-78
2022/03/03 12:49:29;;;;;;;44.92;18.05;;;;;;;;;;5074355;28;20465;-77
2022/03/03 12:51:55;;;;;;;33.20;14.60;;;;;;;;;;5074637;28;20052;-77
2022/03/03 12:54:20;;;;;;;40.78;16.00;;;;;;;;;;5090378;28;20442;-77
2022/03/03 12:56:59;;;;;;;44.13;17.45;;;;;;;;;;5074423;28;20032;-78
2022/03/03 12:59:25;;;;;;;42.13;18.02;;;;;;;;;;5073331;28;20039;-77
2022/03/03 13:01:50;;;;;;;57.55;21.52;;;;;;;;;;5074869;28;20032;-77
2022/03/03 13:04:20;;;;;;;37.35;16.40;;;;;;;;;;5089924;28;20031;-76
2022/03/03 13:06:45;;;;;;;35.25;14.02;;;;;;;;;;5040525;28;20400;-76
2022/03/03 13:09:12;;;;;;;35.58;15.07;;;;;;;;;;5074467;28;20036;-76
2022/03/03 13:11:37;;;;;;;34.13;14.85;;;;;;;;;;5074110;28;20067;-76
2022/03/03 13:14:08;;;;;;;35.63;15.75;;;;;;;;;;5072725;28;20079;-78
2022/03/03 13:16:37;;;;;;;;;;;;;;;;;;5090429;28;20048;-76
2022/03/03 13:19:04;;;;;;;47.88;20.92;;;;;;;;;;5075871;28;19920;-77
2022/03/03 13:21:31;;;;;;;39.33;15.10;;;;;;;;;;5074949;28;20043;-77
2022/03/03 13:23:58;;;;;;;44.53;17.13;;;;;;;;;;5089869;28;20032;-75
2022/03/03 13:26:27;;;;;;;43.28;17.92;;;;;;;;;;5074986;28;20370;-77
2022/03/03 13:29:00;;;;;;;45.77;15.90;;;;;;;;;;5074846;28;20036;-77
2022/03/03 13:31:26;;;;;;;43.65;16.63;;;;;;;;;;5075060;28;20262;-78
2022/03/03 13:33:56;;;;;;;46.15;16.83;;;;;;;;;;5057611;28;20100;-76
2022/03/03 13:36:29;;;;;;;45.88;18.63;;;;;;;;;;5075758;28;20027;-76
2022/03/03 13:38:59;;;;;;;38.15;16.30;;;;;;;;;;5104649;28;20032;-76
2022/03/03 13:41:33;;;;;;;40.25;16.10;;;;;;;;;;5089694;28;20051;-78
2022/03/03 13:44:18;;;;;;;40.80;16.77;;;;;;;;;;5088070;28;20025;-76
2022/03/03 13:47:01;;;;;;;46.17;18.27;;;;;;;;;;5074287;28;20032;-75
2022/03/03 13:49:31;;;;;;;42.10;17.80;;;;;;;;;;5078945;28;20039;-76
2022/03/03 13:52:16;;;;;;;44.65;17.40;;;;;;;;;;5093692;28;20056;-76
2022/03/03 13:54:49;;;;;;;41.35;17.48;;;;;;;;;;5077766;28;20040;-77
2022/03/03 13:57:35;;;;;;;38.47;16.55;;;;;;;;;;5059625;28;20468;-75
2022/03/03 14:00:01;;;;;;;43.20;19.75;;;;;;;;;;5077717;28;20060;-76
2022/03/03 14:02:27;;;;;;;53.33;19.27;;;;;;;;;;5078070;28;20032;-79
2022/03/03 14:04:57;;;;;;;64.63;20.73;;;;;;;;;;5077577;28;20374;-77
2022/03/03 14:07:27;;;;;;;79.25;28.55;;;;;;;;;;5077788;28;20024;-77
2022/03/03 14:10:06;;;;;;;39.97;16.92;;;;;;;;;;5059772;28;20132;-77
2022/03/03 14:12:32;;;;;;;41.78;17.38;;;;;;;;;;5075370;28;20449;-78
2022/03/03 14:14:58;;;;;;;47.60;19.38;;;;;;;;;;5076352;28;20112;-76
2022/03/03 14:17:23;;;;;;;49.00;19.80;;;;;;;;;;5093216;28;20025;-78
2022/03/03 14:19:49;;;;;;;46.00;18.85;;;;;;;;;;5077458;28;20119;-77
2022/03/03 14:22:18;;;;;;;45.13;19.23;;;;;;;;;;5077461;28;20442;-75
2022/03/03 14:24:45;;;;;;;48.50;21.07;;;;;;;;;;5077401;28;20020;-78
2022/03/03 14:27:10;;;;;;;42.47;17.60;;;;;;;;;;5077194;28;20062;-79
2022/03/03 14:29:36;;;;;;;36.65;16.15;;;;;;;;;;5059338;28;20066;-77